createdAt,value
2019-04-21T00:01:16.660Z,69.50
2019-04-21T00:03:53.328Z,69.60
2019-04-21T00:06:45.964Z,69.20
2019-04-21T00:09:11.492Z,67.80
2019-04-21T00:11:41.289Z,68.70
2019-04-21T00:14:01.888Z,70.00
2019-04-21T00:16:32.219Z,69.40
2019-04-21T00:19:09.379Z,68.70
2019-04-21T00:21:40.483Z,69.00
2019-04-21T00:24:23.947Z,69.20
2019-04-21T00:27:05.291Z,69.10
2019-04-21T00:29:33.939Z,68.70
2019-04-21T00:32:00.387Z,68.00
2019-04-21T00:34:17.487Z,67.90
2019-04-21T00:36:57.290Z,68.30
2019-04-21T00:39:48.854Z,68.20
2019-04-21T00:42:09.888Z,68.80
2019-04-21T00:44:35.519Z,68.40
2019-04-21T00:47:06.938Z,69.10
2019-04-21T00:49:47.772Z,69.20
2019-04-21T00:55:27.877Z,69.20
2019-04-21T00:57:58.520Z,69.30
2019-04-21T01:02:56.018Z,68.90
2019-04-21T01:05:27.141Z,68.60
2019-04-21T01:08:01.409Z,68.80
2019-04-21T01:10:21.072Z,67.80
2019-04-21T01:13:02.701Z,68.10
2019-04-21T01:15:37.105Z,68.00
2019-04-21T01:18:05.001Z,67.00
2019-04-21T01:20:17.629Z,67.30
2019-04-21T01:22:45.238Z,66.50
2019-04-21T01:25:22.892Z,67.10
2019-04-21T01:27:59.355Z,67.10
2019-04-21T01:30:42.961Z,65.90
2019-04-21T01:33:17.013Z,66.10
2019-04-21T01:35:42.583Z,66.10
2019-04-21T01:38:28.883Z,65.40
2019-04-21T01:41:17.964Z,65.50
2019-04-21T01:43:34.997Z,66.30
2019-04-21T01:46:11.223Z,65.30
2019-04-21T01:48:34.473Z,66.40
2019-04-21T01:51:08.533Z,66.30
2019-04-21T01:54:03.527Z,66.10
2019-04-21T01:56:51.176Z,66.00
2019-04-21T01:59:10.783Z,65.60
2019-04-21T02:01:59.297Z,63.60
2019-04-21T02:04:34.150Z,63.80
2019-04-21T02:07:01.036Z,63.20
2019-04-21T02:09:30.918Z,63.10
2019-04-21T02:12:08.724Z,63.50
2019-04-21T02:14:41.414Z,62.60
2019-04-21T02:17:11.744Z,63.30
2019-04-21T02:19:31.625Z,63.10
2019-04-21T02:21:59.566Z,63.20
2019-04-21T02:27:29.845Z,62.60
2019-04-21T02:30:14.258Z,63.20
2019-04-21T02:32:53.814Z,62.40
2019-04-21T02:35:25.555Z,59.40
2019-04-21T02:37:54.786Z,58.90
2019-04-21T02:40:24.070Z,59.90
2019-04-21T02:42:56.088Z,59.80
2019-04-21T02:45:23.310Z,60.10
2019-04-21T02:47:59.623Z,59.80
2019-04-21T02:52:53.954Z,59.00
2019-04-21T02:55:22.294Z,59.40
2019-04-21T03:04:00.702Z,59.50
2019-04-21T03:09:24.093Z,57.90
2019-04-21T03:11:59.470Z,58.30
2019-04-21T03:14:41.456Z,57.40
2019-04-21T03:16:47.174Z,56.60
2019-04-21T03:19:37.968Z,56.70
2019-04-21T03:22:11.865Z,57.50
2019-04-21T03:25:20.483Z,57.80
2019-04-21T03:29:57.062Z,56.30
2019-04-21T03:37:25.488Z,56.40
2019-04-21T03:39:54.452Z,57.10
2019-04-21T03:42:26.932Z,55.90
2019-04-21T03:50:11.375Z,55.70
2019-04-21T03:52:30.218Z,56.30
2019-04-21T04:09:45.650Z,55.10
2019-04-21T04:12:13.271Z,54.40
2019-04-21T04:19:49.384Z,55.20
2019-04-21T04:25:03.501Z,54.50
2019-04-21T04:29:59.045Z,54.60
2019-04-21T04:32:28.669Z,54.80
2019-04-21T04:35:03.422Z,53.00
2019-04-21T04:37:31.791Z,56.20
2019-04-21T04:42:39.222Z,56.60
2019-04-21T04:45:22.708Z,54.10
2019-04-21T04:50:00.813Z,54.50
2019-04-21T04:55:29.599Z,55.30
2019-04-21T04:57:54.069Z,54.90
2019-04-21T05:02:41.760Z,55.30
2019-04-21T05:05:20.702Z,54.70
2019-04-21T05:07:57.270Z,55.00
2019-04-21T05:10:27.595Z,54.80
2019-04-21T05:15:16.208Z,55.10
2019-04-21T05:17:52.484Z,55.10
2019-04-21T05:20:26.054Z,54.90
2019-04-21T05:22:53.280Z,55.00
2019-04-21T05:25:18.553Z,54.80
2019-04-21T05:27:50.016Z,55.30
2019-04-21T05:30:34.144Z,56.10
2019-04-21T05:33:13.095Z,55.70
2019-04-21T05:35:56.146Z,55.70
2019-04-21T05:38:23.341Z,55.30
2019-04-21T05:40:52.390Z,53.60
2019-04-21T05:43:32.255Z,54.20
2019-04-21T05:46:18.416Z,54.40
2019-04-21T05:48:36.393Z,54.10
2019-04-21T05:51:20.450Z,54.30
2019-04-21T05:53:56.166Z,53.40
2019-04-21T05:56:31.422Z,54.10
2019-04-21T05:58:57.502Z,54.80
2019-04-21T06:01:34.522Z,54.40
2019-04-21T06:04:07.596Z,54.10
2019-04-21T06:06:34.058Z,54.40
2019-04-21T06:09:01.965Z,54.30
2019-04-21T06:11:40.309Z,54.60
2019-04-21T06:14:08.269Z,53.90
2019-04-21T06:16:43.620Z,55.00
2019-04-21T06:19:05.218Z,54.80
2019-04-21T06:21:40.528Z,53.60
2019-04-21T06:24:11.534Z,53.70
2019-04-21T06:26:54.813Z,53.80
2019-04-21T06:29:18.146Z,51.90
2019-04-21T06:32:19.116Z,52.80
2019-04-21T06:34:16.736Z,52.60
2019-04-21T06:39:31.784Z,51.80
2019-04-21T06:42:05.312Z,50.70
2019-04-21T06:44:32.306Z,51.50
2019-04-21T06:47:07.675Z,49.00
2019-04-21T06:49:30.949Z,50.80
2019-04-21T06:52:20.564Z,50.80
2019-04-21T06:54:44.339Z,50.30
2019-04-21T06:57:11.777Z,49.90
2019-04-21T06:59:41.861Z,50.10
2019-04-21T07:04:43.384Z,49.70
2019-04-21T07:07:14.503Z,49.90
2019-04-21T07:10:04.860Z,50.80
2019-04-21T07:12:13.934Z,50.40
2019-04-21T07:14:49.834Z,49.90
2019-04-21T07:17:24.684Z,49.60
2019-04-21T07:19:55.184Z,51.00
2019-04-21T07:22:24.516Z,50.90
2019-04-21T07:25:00.659Z,51.00
2019-04-21T07:27:31.948Z,50.20
2019-04-21T07:29:59.650Z,48.70
2019-04-21T07:32:29.875Z,49.00
2019-04-21T07:35:03.875Z,48.50
2019-04-21T07:37:31.649Z,50.00
2019-04-21T07:39:54.534Z,48.60
2019-04-21T07:42:24.086Z,51.10
2019-04-21T07:44:55.346Z,51.00
2019-04-21T07:47:34.322Z,50.70
2019-04-21T07:53:01.129Z,49.40
2019-04-21T07:57:56.235Z,51.90
2019-04-21T08:00:38.979Z,50.70
2019-04-21T08:03:09.366Z,47.00
2019-04-21T08:05:53.508Z,51.00
2019-04-21T08:07:59.550Z,51.90
2019-04-21T08:10:33.295Z,50.50
2019-04-21T08:13:09.498Z,50.10
2019-04-21T08:15:58.101Z,50.60
2019-04-21T08:18:34.997Z,48.70
2019-04-21T08:21:02.449Z,46.20
2019-04-21T08:23:31.878Z,45.20
2019-04-21T08:26:04.657Z,44.30
2019-04-21T08:28:42.681Z,44.90
2019-04-21T08:31:09.865Z,47.50
2019-04-21T08:36:19.308Z,44.50
2019-04-21T08:38:41.736Z,44.20
2019-04-21T08:41:12.320Z,45.20
2019-04-21T08:43:44.621Z,45.80
2019-04-21T08:46:21.103Z,45.50
2019-04-21T08:48:49.477Z,44.30
2019-04-21T08:56:30.374Z,46.50
2019-04-21T08:59:05.458Z,46.80
2019-04-21T09:04:13.106Z,47.00
2019-04-21T09:09:17.906Z,46.40
2019-04-21T09:11:49.915Z,44.90
2019-04-21T09:14:20.742Z,44.30
2019-04-21T09:16:46.018Z,43.30
2019-04-21T09:19:34.041Z,42.90
2019-04-21T09:21:59.498Z,43.30
2019-04-21T09:24:41.200Z,43.60
2019-04-21T09:26:54.217Z,43.40
2019-04-21T09:29:19.504Z,42.20
2019-04-21T09:31:42.786Z,42.10
2019-04-21T09:34:20.030Z,41.90
2019-04-21T09:36:46.708Z,40.00
2019-04-21T09:39:18.260Z,41.00
2019-04-21T09:41:44.945Z,41.30
2019-04-21T09:44:22.052Z,40.90
2019-04-21T09:46:50.640Z,39.90
2019-04-21T09:49:21.747Z,42.00
2019-04-21T09:51:48.386Z,40.70
2019-04-21T09:54:24.958Z,39.60
2019-04-21T09:56:54.953Z,40.80
2019-04-21T09:59:28.179Z,40.20
2019-04-21T10:01:59.260Z,44.50
2019-04-21T10:04:23.185Z,40.70
2019-04-21T10:06:54.304Z,40.50
2019-04-21T10:09:24.348Z,40.70
2019-04-21T10:15:26.308Z,39.40
2019-04-21T10:20:51.847Z,40.60
2019-04-21T10:23:21.457Z,42.50
2019-04-21T10:25:50.976Z,42.90
2019-04-21T10:28:21.109Z,44.30
2019-04-21T10:30:51.041Z,43.40
2019-04-21T10:33:19.908Z,43.10
2019-04-21T10:35:49.344Z,43.90
2019-04-21T10:38:28.219Z,42.40
2019-04-21T10:40:49.716Z,43.20
2019-04-21T10:43:22.166Z,42.80
2019-04-21T10:45:50.773Z,42.70
2019-04-21T10:48:20.990Z,42.60
2019-04-21T10:50:52.689Z,42.10
2019-04-21T10:53:31.078Z,42.30
2019-04-21T10:56:12.193Z,42.00
2019-04-21T10:58:34.143Z,42.30
2019-04-21T11:01:14.368Z,41.50
2019-04-21T11:03:46.650Z,42.50
2019-04-21T11:06:18.892Z,43.70
2019-04-21T11:08:52.368Z,43.60
2019-04-21T11:11:19.998Z,42.80
2019-04-21T11:13:48.858Z,44.00
2019-04-21T11:16:19.205Z,44.90
2019-04-21T11:18:51.495Z,44.40
2019-04-21T11:21:21.287Z,43.30
2019-04-21T11:23:50.193Z,43.50
2019-04-21T11:26:19.995Z,43.70
2019-04-21T11:28:50.531Z,43.10
2019-04-21T11:31:20.930Z,43.20
2019-04-21T11:33:51.211Z,43.90
2019-04-21T11:36:21.606Z,44.00
2019-04-21T11:39:07.222Z,44.30
2019-04-21T11:41:24.001Z,44.20
2019-04-21T11:43:53.167Z,44.20
2019-04-21T11:46:22.675Z,45.30
2019-04-21T11:48:52.543Z,42.90
2019-04-21T11:51:22.804Z,44.10
2019-04-21T11:53:52.953Z,42.60
2019-04-21T11:56:23.089Z,41.70
2019-04-21T11:58:54.080Z,42.60
2019-04-21T12:01:25.502Z,43.20
2019-04-21T12:03:55.719Z,43.80
2019-04-21T12:06:32.324Z,44.90
2019-04-21T12:08:59.349Z,45.10
2019-04-21T12:11:27.653Z,45.20
2019-04-21T12:13:56.444Z,45.50
2019-04-21T12:16:25.910Z,46.50
2019-04-21T12:19:14.585Z,45.60
2019-04-21T12:21:53.462Z,48.90
2019-04-21T12:24:15.460Z,45.40
2019-04-21T12:26:44.747Z,45.50
2019-04-21T12:29:14.638Z,46.60
2019-04-21T12:31:55.175Z,45.70
2019-04-21T12:34:44.202Z,46.70
2019-04-21T12:37:15.012Z,45.30
2019-04-21T12:39:45.092Z,46.20
2019-04-21T12:42:14.852Z,44.90
2019-04-21T12:44:45.436Z,46.30
2019-04-21T12:47:16.240Z,45.40
2019-04-21T12:49:46.084Z,44.30
2019-04-21T12:52:15.617Z,45.60
2019-04-21T12:54:45.875Z,45.90
2019-04-21T12:57:30.216Z,44.50
2019-04-21T12:59:58.888Z,45.40
2019-04-21T13:02:29.542Z,44.40
2019-04-21T13:04:59.716Z,43.30
2019-04-21T13:07:31.201Z,44.60
2019-04-21T13:10:02.351Z,44.20
2019-04-21T13:12:33.279Z,42.10
2019-04-21T13:15:04.229Z,43.00
2019-04-21T13:17:35.293Z,43.60
2019-04-21T13:20:07.340Z,43.30
2019-04-21T13:22:57.711Z,42.70
2019-04-21T13:25:27.808Z,42.10
2019-04-21T13:27:58.672Z,42.10
2019-04-21T13:30:28.489Z,41.80
2019-04-21T13:32:58.892Z,41.50
2019-04-21T13:35:28.912Z,41.90
2019-04-21T13:37:58.637Z,41.20
2019-04-21T13:40:49.933Z,42.20
2019-04-21T13:43:06.605Z,42.30
2019-04-21T13:45:35.917Z,41.70
2019-04-21T13:48:06.675Z,42.00
2019-04-21T13:50:37.349Z,41.20
2019-04-21T13:53:07.035Z,41.70
2019-04-21T13:55:37.063Z,41.50
2019-04-21T13:58:08.413Z,42.90
2019-04-21T14:00:38.297Z,41.50
2019-04-21T14:03:07.204Z,43.50
2019-04-21T14:05:38.124Z,42.50
2019-04-21T14:08:09.159Z,41.50
2019-04-21T14:10:39.806Z,42.20
2019-04-21T14:13:09.397Z,42.10
2019-04-21T14:15:38.167Z,42.00
2019-04-21T14:18:08.764Z,40.40
2019-04-21T14:20:39.544Z,40.70
2019-04-21T14:23:20.513Z,40.40
2019-04-21T14:25:41.619Z,40.20
2019-04-21T14:28:14.246Z,39.50
2019-04-21T14:30:44.296Z,39.60
2019-04-21T14:33:14.173Z,40.20
2019-04-21T14:35:45.107Z,40.10
2019-04-21T14:38:16.538Z,40.50
2019-04-21T14:40:46.250Z,39.50
2019-04-21T14:43:16.438Z,39.70
2019-04-21T14:45:48.454Z,40.80
2019-04-21T14:48:23.202Z,39.80
2019-04-21T14:50:54.674Z,39.80
2019-04-21T14:53:25.796Z,40.00
2019-04-21T14:55:57.386Z,40.90
2019-04-21T14:58:27.415Z,39.70
2019-04-21T15:01:18.136Z,39.70
2019-04-21T15:03:47.894Z,40.20
2019-04-21T15:06:17.540Z,39.50
2019-04-21T15:08:47.085Z,39.30
2019-04-21T15:11:17.995Z,39.00
2019-04-21T15:13:48.123Z,39.30
2019-04-21T15:16:18.699Z,39.60
2019-04-21T15:18:48.636Z,39.70
2019-04-21T15:21:19.428Z,39.10
2019-04-21T15:23:50.583Z,39.00
2019-04-21T15:26:20.323Z,38.30
2019-04-21T15:28:50.946Z,39.00
2019-04-21T15:31:28.759Z,38.90
2019-04-21T15:33:52.854Z,38.90
2019-04-21T15:36:22.906Z,38.90
2019-04-21T15:38:53.987Z,38.20
2019-04-21T15:41:24.689Z,38.40
2019-04-21T15:43:54.418Z,38.70
2019-04-21T15:46:24.867Z,38.50
2019-04-21T15:49:15.500Z,39.40
2019-04-21T15:51:46.376Z,39.50
2019-04-21T15:54:16.511Z,39.60
2019-04-21T15:59:30.601Z,39.80
2019-04-21T16:02:04.227Z,41.00
2019-04-21T16:04:36.799Z,41.50
2019-04-21T16:07:08.356Z,41.60
2019-04-21T16:09:46.135Z,41.50
2019-04-21T16:12:17.809Z,41.80
2019-04-21T16:14:47.706Z,41.60
2019-04-21T16:17:17.088Z,43.20
2019-04-21T16:19:46.192Z,43.10
2019-04-21T16:22:16.799Z,43.30
2019-04-21T16:24:47.775Z,42.80
2019-04-21T16:27:17.610Z,43.60
2019-04-21T16:29:47.906Z,43.20
2019-04-21T16:32:19.770Z,44.70
2019-04-21T16:34:54.371Z,43.60
2019-04-21T16:37:19.949Z,43.70
2019-04-21T16:39:49.523Z,43.60
2019-04-21T16:42:22.529Z,45.30
2019-04-21T16:44:52.770Z,45.10
2019-04-21T16:47:24.165Z,45.00
2019-04-21T16:49:53.999Z,45.60
2019-04-21T16:52:25.903Z,46.30
2019-04-21T16:57:43.816Z,47.10
2019-04-21T17:00:26.874Z,48.10
2019-04-21T17:02:48.330Z,47.40
2019-04-21T17:05:18.317Z,49.20
2019-04-21T17:07:49.237Z,47.80
2019-04-21T17:10:20.277Z,49.50
2019-04-21T17:12:51.004Z,50.50
2019-04-21T17:15:51.914Z,50.10
2019-04-21T17:18:22.812Z,52.30
2019-04-21T17:20:46.096Z,51.60
2019-04-21T17:23:07.173Z,50.00
2019-04-21T17:25:37.184Z,51.90
2019-04-21T17:28:07.838Z,51.90
2019-04-21T17:30:37.766Z,52.00
2019-04-21T17:33:10.287Z,52.60
2019-04-21T17:35:39.109Z,53.30
2019-04-21T17:38:09.857Z,52.90
2019-04-21T17:40:40.004Z,53.70
2019-04-21T17:43:14.386Z,54.20
2019-04-21T17:45:41.403Z,53.00
2019-04-21T17:48:14.946Z,54.40
2019-04-21T17:50:45.364Z,55.00
2019-04-21T17:53:27.840Z,55.10
2019-04-21T17:56:15.255Z,54.50
2019-04-21T17:58:48.727Z,55.40
2019-04-21T18:03:53.547Z,55.50
2019-04-21T18:06:11.235Z,55.80
2019-04-21T18:08:46.209Z,56.10
2019-04-21T18:11:42.519Z,56.80
2019-04-21T18:13:49.886Z,55.30
2019-04-21T18:16:25.078Z,56.40
2019-04-21T18:18:50.757Z,58.80
2019-04-21T18:21:32.364Z,57.80
2019-04-21T18:24:08.032Z,58.90
2019-04-21T18:26:41.763Z,57.70
2019-04-21T18:29:07.526Z,57.80
2019-04-21T18:31:44.814Z,57.80
2019-04-21T18:34:29.270Z,59.60
2019-04-21T18:37:04.868Z,58.00
2019-04-21T18:42:39.848Z,58.30
2019-04-21T18:51:04.795Z,58.90
2019-04-21T18:53:47.001Z,58.80
2019-04-21T18:56:20.983Z,59.90
2019-04-21T18:58:50.993Z,58.40
2019-04-21T19:01:27.273Z,60.40
2019-04-21T19:03:55.641Z,59.70
2019-04-21T19:06:44.286Z,60.00
2019-04-21T19:09:11.568Z,59.60
2019-04-21T19:11:44.994Z,61.50
2019-04-21T19:14:29.035Z,63.40
2019-04-21T19:16:59.072Z,60.60
2019-04-21T19:19:41.427Z,60.10
2019-04-21T19:21:55.875Z,60.40
2019-04-21T19:24:59.506Z,60.10
2019-04-21T19:27:18.939Z,60.10
2019-04-21T19:29:51.901Z,60.50
2019-04-21T19:32:19.912Z,60.20
2019-04-21T19:34:34.739Z,60.70
2019-04-21T19:37:10.855Z,60.70
2019-04-21T19:39:48.845Z,61.00
2019-04-21T19:42:30.915Z,61.40
2019-04-21T19:45:06.095Z,62.00
2019-04-21T19:47:39.832Z,61.60
2019-04-21T19:50:11.589Z,61.30
2019-04-21T19:52:34.537Z,61.70
2019-04-21T19:54:56.195Z,61.90
2019-04-21T19:57:25.104Z,62.10
2019-04-21T19:59:59.131Z,61.90
2019-04-21T20:02:26.792Z,61.90
2019-04-21T20:05:02.131Z,62.50
2019-04-21T20:07:43.825Z,62.70
2019-04-21T20:10:23.991Z,62.60
2019-04-21T20:12:50.313Z,63.10
2019-04-21T20:15:33.075Z,63.50
2019-04-21T20:17:50.339Z,63.50
2019-04-21T20:20:07.358Z,63.60
2019-04-21T20:22:51.947Z,63.70
2019-04-21T20:25:23.178Z,64.70
2019-04-21T20:28:00.684Z,63.70
2019-04-21T20:30:42.460Z,63.50
2019-04-21T20:33:38.017Z,63.50
2019-04-21T20:35:53.361Z,63.60
2019-04-21T20:38:14.876Z,63.50
2019-04-21T20:40:35.632Z,63.50
2019-04-21T20:43:16.444Z,64.00
2019-04-21T20:45:55.625Z,64.20
2019-04-21T20:48:11.432Z,63.90
2019-04-21T20:50:43.436Z,62.90
2019-04-21T20:53:19.828Z,63.50
2019-04-21T20:55:48.558Z,63.10
2019-04-21T20:58:24.115Z,63.60
2019-04-21T21:01:06.381Z,63.50
2019-04-21T21:03:24.257Z,63.40
2019-04-21T21:05:50.435Z,63.80
2019-04-21T21:08:31.186Z,64.40
2019-04-21T21:10:57.523Z,64.40
2019-04-21T21:13:32.203Z,68.00
2019-04-21T21:16:13.817Z,63.80
2019-04-21T21:21:29.628Z,63.50
2019-04-21T21:24:03.469Z,64.80
2019-04-21T21:26:38.253Z,64.80
2019-04-21T21:29:01.973Z,64.80
2019-04-21T21:31:41.700Z,65.10
2019-04-21T21:34:16.518Z,64.50
2019-04-21T21:36:41.802Z,64.80
2019-04-21T21:39:10.950Z,66.50
2019-04-21T21:41:33.625Z,66.30
2019-04-21T21:44:05.868Z,67.40
2019-04-21T21:46:44.524Z,67.20
2019-04-21T21:49:33.785Z,66.60
2019-04-21T21:52:02.962Z,67.30
2019-04-21T21:54:23.206Z,66.30
2019-04-21T21:57:04.940Z,66.20
2019-04-21T21:59:37.968Z,66.40
2019-04-21T22:02:09.463Z,66.20
2019-04-21T22:04:38.940Z,66.10
2019-04-21T22:07:12.427Z,65.70
2019-04-21T22:09:39.971Z,66.90
2019-04-21T22:12:10.995Z,66.40
2019-04-21T22:14:46.544Z,66.40
2019-04-21T22:17:33.163Z,66.00
2019-04-21T22:20:03.079Z,66.60
2019-04-21T22:22:28.100Z,66.00
2019-04-21T22:24:55.759Z,66.10
2019-04-21T22:27:17.110Z,66.70
2019-04-21T22:29:50.021Z,67.40
2019-04-21T22:32:25.017Z,67.30
2019-04-21T22:34:54.812Z,67.00
2019-04-21T22:37:36.759Z,66.80
2019-04-21T22:40:07.111Z,66.90
2019-04-21T22:42:31.744Z,67.00
2019-04-21T22:45:00.718Z,66.90
2019-04-21T22:47:43.297Z,67.30
2019-04-21T22:50:38.381Z,67.30
2019-04-21T22:53:10.216Z,70.40
2019-04-21T22:55:40.849Z,67.20
2019-04-21T22:58:11.510Z,66.70
2019-04-21T23:04:07.178Z,66.00
2019-04-21T23:06:39.189Z,68.50
2019-04-21T23:09:10.842Z,65.80
2019-04-21T23:11:45.636Z,66.60
2019-04-21T23:14:14.960Z,66.10
2019-04-21T23:16:45.672Z,66.00
2019-04-21T23:19:31.174Z,66.50
2019-04-21T23:22:03.573Z,67.90
2019-04-21T23:24:42.959Z,66.70
2019-04-21T23:27:05.702Z,66.50
2019-04-21T23:29:48.341Z,67.20
2019-04-21T23:32:11.019Z,66.50
2019-04-21T23:34:26.590Z,66.50
2019-04-21T23:37:05.509Z,66.60
2019-04-21T23:39:30.278Z,65.90
2019-04-21T23:41:59.196Z,66.30
2019-04-21T23:44:33.865Z,65.50
2019-04-21T23:47:04.782Z,66.10
2019-04-21T23:49:42.966Z,65.80
2019-04-21T23:52:06.741Z,66.80
2019-04-21T23:54:33.518Z,67.20
2019-04-21T23:57:12.912Z,67.40
2019-04-21T23:59:40.856Z,67.60
